createdAt,value
2023-03-11T00:01:41.074Z,1.63
2023-03-11T00:04:27.685Z,1.61
2023-03-11T00:07:18.121Z,1.49
2023-03-11T00:09:52.235Z,1.56
2023-03-11T00:12:29.685Z,1.49
2023-03-11T00:14:58.478Z,1.42
2023-03-11T00:17:30.624Z,1.31
2023-03-11T00:20:31.719Z,1.30
2023-03-11T00:23:00.869Z,1.28
2023-03-11T00:25:32.601Z,1.16
2023-03-11T00:28:03.457Z,1.07
2023-03-11T00:30:33.465Z,1.02
2023-03-11T00:33:02.303Z,0.96
2023-03-11T00:35:35.116Z,0.94
2023-03-11T00:38:05.731Z,0.86
2023-03-11T00:41:28.843Z,0.85
2023-03-11T00:44:26.916Z,0.82
2023-03-11T00:47:27.642Z,0.76
2023-03-11T00:49:55.768Z,0.83
2023-03-11T00:52:24.185Z,0.75
2023-03-11T00:55:24.672Z,0.66
2023-03-11T00:58:04.236Z,0.64
2023-03-11T01:00:41.666Z,0.63
2023-03-11T01:03:11.271Z,0.69
2023-03-11T01:05:42.643Z,0.76
2023-03-11T01:08:27.615Z,0.82
2023-03-11T01:11:23.218Z,0.81
2023-03-11T01:14:25.676Z,0.85
2023-03-11T01:17:07.094Z,0.95
2023-03-11T01:19:37.230Z,0.94
2023-03-11T01:22:23.431Z,1.00
2023-03-11T01:25:18.862Z,1.17
2023-03-11T01:28:27.088Z,1.24
2023-03-11T01:31:19.879Z,1.33
2023-03-11T01:34:02.947Z,1.45
2023-03-11T01:36:47.193Z,1.45
2023-03-11T01:39:24.505Z,1.45
2023-03-11T01:42:26.064Z,1.43
2023-03-11T01:44:59.751Z,1.44
2023-03-11T01:48:06.990Z,1.38
2023-03-11T01:50:49.808Z,1.29
2023-03-11T01:53:33.504Z,1.24
2023-03-11T01:56:26.705Z,1.25
2023-03-11T01:59:05.386Z,1.24
2023-03-11T02:01:35.073Z,1.30
2023-03-11T02:04:08.910Z,1.31
2023-03-11T02:07:03.071Z,1.36
2023-03-11T02:09:47.943Z,1.44
2023-03-11T02:12:31.183Z,1.42
2023-03-11T02:15:00.544Z,1.52
2023-03-11T02:17:30.448Z,1.48
2023-03-11T02:20:33.848Z,1.54
2023-03-11T02:23:25.648Z,1.50
2023-03-11T02:26:25.394Z,1.50
2023-03-11T02:29:28.379Z,1.50
2023-03-11T02:32:31.555Z,1.51
2023-03-11T02:35:18.499Z,1.51
2023-03-11T02:38:07.292Z,1.51
2023-03-11T02:40:56.708Z,1.54
2023-03-11T02:43:41.389Z,1.50
2023-03-11T02:46:13.404Z,1.46
2023-03-11T02:48:42.377Z,1.43
2023-03-11T02:51:30.588Z,1.43
2023-03-11T02:54:04.188Z,1.46
2023-03-11T02:56:36.785Z,1.43
2023-03-11T02:59:29.664Z,1.44
2023-03-11T03:02:07.723Z,1.43
2023-03-11T03:04:37.768Z,1.42
2023-03-11T03:07:30.935Z,1.48
2023-03-11T03:10:01.576Z,1.31
2023-03-11T03:12:30.855Z,1.27
2023-03-11T03:15:07.540Z,1.23
2023-03-11T03:17:37.227Z,1.16
2023-03-11T03:20:31.297Z,1.02
2023-03-11T03:23:03.770Z,1.00
2023-03-11T03:25:52.624Z,1.02
2023-03-11T03:28:27.624Z,0.93
2023-03-11T03:31:26.312Z,0.95
2023-03-11T03:34:03.671Z,0.92
2023-03-11T03:36:32.112Z,0.94
2023-03-11T03:39:30.013Z,0.99
2023-03-11T03:42:14.644Z,1.02
2023-03-11T03:45:01.566Z,1.01
2023-03-11T03:47:48.359Z,1.05
2023-03-11T03:50:25.369Z,1.02
2023-03-11T03:53:06.243Z,0.99
2023-03-11T03:55:34.957Z,1.00
2023-03-11T03:58:30.893Z,0.96
2023-03-11T04:01:28.497Z,0.96
2023-03-11T04:04:04.318Z,0.92
2023-03-11T04:07:26.592Z,0.88
2023-03-11T04:10:25.407Z,0.85
2023-03-11T04:13:29.600Z,0.74
2023-03-11T04:16:29.859Z,0.67
2023-03-11T04:19:27.114Z,0.57
2023-03-11T04:21:55.450Z,0.53
2023-03-11T04:24:25.961Z,0.47
2023-03-11T04:27:07.361Z,0.52
2023-03-11T04:29:39.886Z,0.51
2023-03-11T04:32:15.736Z,0.51
2023-03-11T04:35:05.727Z,0.51
2023-03-11T04:37:34.562Z,0.49
2023-03-11T04:40:26.021Z,0.45
2023-03-11T04:43:25.367Z,0.50
2023-03-11T04:46:11.524Z,0.51
2023-03-11T04:48:45.419Z,0.50
2023-03-11T04:51:14.808Z,0.51
2023-03-11T04:53:46.029Z,0.52
2023-03-11T04:56:14.841Z,0.53
2023-03-11T04:59:04.938Z,0.51
2023-03-11T05:01:36.010Z,0.51
2023-03-11T05:04:09.047Z,0.53
2023-03-11T05:07:14.780Z,0.55
2023-03-11T05:10:05.367Z,0.53
2023-03-11T05:15:53.132Z,0.48
2023-03-11T05:18:30.406Z,0.48
2023-03-11T05:21:24.575Z,0.46
2023-03-11T05:24:01.473Z,0.47
2023-03-11T05:26:30.664Z,0.51
2023-03-11T05:29:26.026Z,0.54
2023-03-11T05:32:04.083Z,0.55
2023-03-11T05:34:32.326Z,0.56
2023-03-11T05:37:03.138Z,0.59
2023-03-11T05:40:32.040Z,0.60
2023-03-11T05:43:07.480Z,0.58
2023-03-11T05:45:58.250Z,0.58
2023-03-11T05:48:29.248Z,0.57
2023-03-11T05:51:16.031Z,0.61
2023-03-11T05:53:50.051Z,0.56
2023-03-11T05:56:44.857Z,0.58
2023-03-11T05:59:18.180Z,0.61
2023-03-11T06:01:51.700Z,0.57
2023-03-11T06:04:21.473Z,0.56
2023-03-11T06:06:50.178Z,0.53
2023-03-11T06:09:21.344Z,0.51
2023-03-11T06:11:50.173Z,0.50
2023-03-11T06:14:20.727Z,0.49
2023-03-11T06:16:52.196Z,0.47
2023-03-11T06:19:23.353Z,0.49
2023-03-11T06:21:54.692Z,0.50
2023-03-11T06:24:23.253Z,0.49
2023-03-11T06:26:57.181Z,0.51
2023-03-11T06:29:29.188Z,0.53
2023-03-11T06:31:57.669Z,0.54
2023-03-11T06:34:27.381Z,0.56
2023-03-11T06:37:08.839Z,0.59
2023-03-11T06:39:37.241Z,0.65
2023-03-11T06:42:06.232Z,0.69
2023-03-11T06:44:34.897Z,0.71
2023-03-11T06:47:04.820Z,0.73
2023-03-11T06:49:35.230Z,0.75
2023-03-11T06:52:04.665Z,0.76
2023-03-11T06:54:33.033Z,0.79
2023-03-11T06:57:01.227Z,0.88
2023-03-11T06:59:30.442Z,1.04
2023-03-11T07:02:00.111Z,1.25
2023-03-11T07:04:28.978Z,1.37
2023-03-11T07:07:02.147Z,1.42
2023-03-11T07:09:32.362Z,1.37
2023-03-11T07:12:00.622Z,1.40
2023-03-11T07:14:34.011Z,1.40
2023-03-11T07:17:02.799Z,1.33
2023-03-11T07:19:38.200Z,1.18
2023-03-11T07:22:07.935Z,1.06
2023-03-11T07:24:36.816Z,1.08
2023-03-11T07:27:05.493Z,1.15
2023-03-11T07:29:33.712Z,1.20
2023-03-11T07:32:02.429Z,1.28
2023-03-11T07:34:33.089Z,1.30
2023-03-11T07:37:04.845Z,1.21
2023-03-11T07:39:34.699Z,1.21
2023-03-11T07:42:03.189Z,1.38
2023-03-11T07:44:37.719Z,1.62
2023-03-11T07:47:07.284Z,1.70
2023-03-11T07:49:40.379Z,1.82
2023-03-11T07:52:09.180Z,2.21
2023-03-11T07:54:38.779Z,2.70
2023-03-11T07:57:18.596Z,2.82
2023-03-11T08:00:03.152Z,2.99
2023-03-11T08:02:49.405Z,3.01
2023-03-11T08:05:18.779Z,3.04
2023-03-11T08:07:54.081Z,3.12
2023-03-11T08:10:24.384Z,3.30
2023-03-11T08:12:55.272Z,3.35
2023-03-11T08:15:24.751Z,3.37
2023-03-11T08:17:56.903Z,3.23
2023-03-11T08:20:31.430Z,3.39
2023-03-11T08:23:02.828Z,3.61
2023-03-11T08:25:32.860Z,3.73
2023-03-11T08:28:11.691Z,3.56
2023-03-11T08:30:42.565Z,3.68
2023-03-11T08:33:10.876Z,3.92
2023-03-11T08:35:40.952Z,4.07
2023-03-11T08:38:09.532Z,3.78
2023-03-11T08:40:46.861Z,3.49
2023-03-11T08:43:16.290Z,3.61
2023-03-11T08:45:45.586Z,3.53
2023-03-11T08:48:14.120Z,3.82
2023-03-11T08:50:53.334Z,3.87
2023-03-11T08:53:23.727Z,4.14
2023-03-11T08:55:54.165Z,3.92
2023-03-11T08:58:22.416Z,3.95
2023-03-11T09:00:50.809Z,3.56
2023-03-11T09:03:23.535Z,3.82
2023-03-11T09:05:58.477Z,3.73
2023-03-11T09:08:28.260Z,3.60
2023-03-11T09:10:57.795Z,3.63
2023-03-11T09:13:26.632Z,3.70
2023-03-11T09:15:55.129Z,3.74
2023-03-11T09:18:23.739Z,3.62
2023-03-11T09:20:52.182Z,3.33
2023-03-11T09:23:20.639Z,2.87
2023-03-11T09:25:49.329Z,3.03
2023-03-11T09:28:19.302Z,3.11
2023-03-11T09:30:47.600Z,3.45
2023-03-11T09:33:16.232Z,3.83
2023-03-11T09:35:49.163Z,4.34
2023-03-11T09:38:17.799Z,4.70
2023-03-11T09:40:57.243Z,4.81
2023-03-11T09:43:36.118Z,4.44
2023-03-11T09:46:24.337Z,4.49
2023-03-11T09:49:03.783Z,3.98
2023-03-11T09:51:37.199Z,3.79
2023-03-11T09:54:12.318Z,3.60
2023-03-11T09:56:56.577Z,3.80
2023-03-11T09:59:46.317Z,4.15
2023-03-11T10:02:18.397Z,4.67
2023-03-11T10:04:54.028Z,5.25
2023-03-11T10:08:01.543Z,4.87
2023-03-11T10:10:43.333Z,4.94
2023-03-11T10:13:27.106Z,4.88
2023-03-11T10:16:03.962Z,5.09
2023-03-11T10:18:51.171Z,5.16
2023-03-11T10:21:30.374Z,5.26
2023-03-11T10:24:31.044Z,5.53
2023-03-11T10:27:08.515Z,5.47
2023-03-11T10:29:47.292Z,5.65
2023-03-11T10:32:24.252Z,5.42
2023-03-11T10:35:01.001Z,5.12
2023-03-11T10:37:48.921Z,5.27
2023-03-11T10:40:25.749Z,5.16
2023-03-11T10:42:56.202Z,4.94
2023-03-11T10:45:27.067Z,4.88
2023-03-11T10:47:59.083Z,4.59
2023-03-11T10:50:27.656Z,4.42
2023-03-11T10:53:08.663Z,4.38
2023-03-11T10:55:46.204Z,4.65
2023-03-11T10:58:16.287Z,4.78
2023-03-11T11:00:45.825Z,4.92
2023-03-11T11:03:22.951Z,5.21
2023-03-11T11:06:02.124Z,5.79
2023-03-11T11:08:31.905Z,6.54
2023-03-11T11:11:05.519Z,7.03
2023-03-11T11:13:36.079Z,6.61
2023-03-11T11:16:07.053Z,6.95
2023-03-11T11:18:43.620Z,6.65
2023-03-11T11:21:16.698Z,6.53
2023-03-11T11:23:54.852Z,5.59
2023-03-11T11:26:32.731Z,5.77
2023-03-11T11:29:10.489Z,5.07
2023-03-11T11:31:39.693Z,5.16
2023-03-11T11:34:38.854Z,4.98
2023-03-11T11:37:11.416Z,4.90
2023-03-11T11:39:51.972Z,5.07
2023-03-11T11:42:32.058Z,5.05
2023-03-11T11:45:06.187Z,5.30
2023-03-11T11:47:37.053Z,5.16
2023-03-11T11:50:13.948Z,5.41
2023-03-11T11:52:48.700Z,5.56
2023-03-11T11:55:21.892Z,5.72
2023-03-11T11:57:51.530Z,6.02
2023-03-11T12:00:35.622Z,6.18
2023-03-11T12:03:22.104Z,6.12
2023-03-11T12:05:58.268Z,6.65
2023-03-11T12:08:35.933Z,6.59
2023-03-11T12:11:07.608Z,6.83
2023-03-11T12:13:51.862Z,6.58
2023-03-11T12:16:33.500Z,6.05
2023-03-11T12:19:11.146Z,5.35
2023-03-11T12:21:58.694Z,5.41
2023-03-11T12:24:46.982Z,5.19
2023-03-11T12:27:24.234Z,5.41
2023-03-11T12:29:57.241Z,5.29
2023-03-11T12:32:31.650Z,5.66
2023-03-11T12:35:12.205Z,5.56
2023-03-11T12:37:42.471Z,5.73
2023-03-11T12:40:48.831Z,5.85
2023-03-11T12:44:11.723Z,5.81
2023-03-11T12:47:20.574Z,6.03
2023-03-11T12:49:51.804Z,5.70
2023-03-11T12:52:36.250Z,5.57
2023-03-11T12:55:31.808Z,6.09
2023-03-11T12:58:08.543Z,6.11
2023-03-11T13:00:58.672Z,6.14
2023-03-11T13:03:49.887Z,5.97
2023-03-11T13:06:33.217Z,6.23
2023-03-11T13:09:02.502Z,6.00
2023-03-11T13:11:43.857Z,5.98
2023-03-11T13:14:30.127Z,5.84
2023-03-11T13:17:19.253Z,6.20
2023-03-11T13:19:55.947Z,6.40
2023-03-11T13:22:45.904Z,6.51
2023-03-11T13:25:28.697Z,6.27
2023-03-11T13:28:08.890Z,5.80
2023-03-11T13:30:42.077Z,5.80
2023-03-11T13:33:23.876Z,5.50
2023-03-11T13:36:21.326Z,5.56
2023-03-11T13:39:13.568Z,5.47
2023-03-11T13:41:44.369Z,5.28
2023-03-11T13:44:23.235Z,5.58
2023-03-11T13:46:56.509Z,5.49
2023-03-11T13:49:32.205Z,5.64
2023-03-11T13:52:04.584Z,5.66
2023-03-11T13:54:40.541Z,5.55
2023-03-11T13:57:22.165Z,5.57
2023-03-11T13:59:54.964Z,5.78
2023-03-11T14:02:26.814Z,5.75
2023-03-11T14:04:59.032Z,5.77
2023-03-11T14:07:30.437Z,6.08
2023-03-11T14:10:18.305Z,5.81
2023-03-11T14:12:47.248Z,5.62
2023-03-11T14:15:21.434Z,5.74
2023-03-11T14:17:53.646Z,5.83
2023-03-11T14:20:25.397Z,6.01
2023-03-11T14:22:55.906Z,6.05
2023-03-11T14:25:27.019Z,6.09
2023-03-11T14:27:59.322Z,5.96
2023-03-11T14:30:31.521Z,5.76
2023-03-11T14:33:02.794Z,6.08
2023-03-11T14:35:33.953Z,5.93
2023-03-11T14:38:30.227Z,5.83
2023-03-11T14:41:07.261Z,6.13
2023-03-11T14:43:40.734Z,5.85
2023-03-11T14:46:17.232Z,5.68
2023-03-11T14:48:46.019Z,5.51
2023-03-11T14:51:21.616Z,5.51
2023-03-11T14:54:00.354Z,5.45
2023-03-11T14:56:32.526Z,5.67
2023-03-11T14:59:07.988Z,5.88
2023-03-11T15:01:41.855Z,6.54
2023-03-11T15:04:13.887Z,7.22
2023-03-11T15:06:44.182Z,7.53
2023-03-11T15:09:17.354Z,7.40
2023-03-11T15:11:50.918Z,6.88
2023-03-11T15:14:24.253Z,6.66
2023-03-11T15:16:55.934Z,6.44
2023-03-11T15:19:35.284Z,6.07
2023-03-11T15:22:08.452Z,5.75
2023-03-11T15:24:37.503Z,5.49
2023-03-11T15:27:08.222Z,5.71
2023-03-11T15:29:37.795Z,5.91
2023-03-11T15:32:40.059Z,5.98
2023-03-11T15:35:19.277Z,5.64
2023-03-11T15:37:49.239Z,5.78
2023-03-11T15:40:35.240Z,5.82
2023-03-11T15:43:27.992Z,5.75
2023-03-11T15:45:58.632Z,5.67
2023-03-11T15:48:30.047Z,5.92
2023-03-11T15:51:00.269Z,5.74
2023-03-11T15:53:31.733Z,5.99
2023-03-11T15:56:07.865Z,5.90
2023-03-11T15:58:39.318Z,6.02
2023-03-11T16:01:07.697Z,5.89
2023-03-11T16:03:38.921Z,5.85
2023-03-11T16:06:07.531Z,5.52
2023-03-11T16:08:36.621Z,5.24
2023-03-11T16:11:05.319Z,4.81
2023-03-11T16:13:33.535Z,4.70
2023-03-11T16:16:04.540Z,4.47
2023-03-11T16:18:33.742Z,4.29
2023-03-11T16:21:09.247Z,4.23
2023-03-11T16:23:50.776Z,4.09
2023-03-11T16:26:23.772Z,4.01
2023-03-11T16:28:51.957Z,3.85
2023-03-11T16:31:20.702Z,3.69
2023-03-11T16:33:49.291Z,3.61
2023-03-11T16:36:19.081Z,3.59
2023-03-11T16:38:51.350Z,3.49
2023-03-11T16:41:20.032Z,3.48
2023-03-11T16:43:49.041Z,3.59
2023-03-11T16:46:18.269Z,3.54
2023-03-11T16:48:48.858Z,3.54
2023-03-11T16:51:17.171Z,3.31
2023-03-11T16:53:46.956Z,3.28
2023-03-11T16:56:18.445Z,3.32
2023-03-11T16:58:48.094Z,3.27
2023-03-11T17:01:16.942Z,3.10
2023-03-11T17:03:48.516Z,3.04
2023-03-11T17:06:17.900Z,3.02
2023-03-11T17:08:49.930Z,2.90
2023-03-11T17:11:19.752Z,2.84
2023-03-11T17:13:48.133Z,2.73
2023-03-11T17:16:18.918Z,2.69
2023-03-11T17:18:47.901Z,2.53
2023-03-11T17:21:17.388Z,2.44
2023-03-11T17:23:45.678Z,2.29
2023-03-11T17:26:17.864Z,2.21
2023-03-11T17:28:47.333Z,2.08
2023-03-11T17:31:17.121Z,1.90
2023-03-11T17:33:46.485Z,1.80
2023-03-11T17:36:17.319Z,1.67
2023-03-11T17:38:46.789Z,1.52
2023-03-11T17:41:18.708Z,1.42
2023-03-11T17:43:50.967Z,1.35
2023-03-11T17:46:22.595Z,1.24
2023-03-11T17:48:52.801Z,1.15
2023-03-11T17:51:23.436Z,1.08
2023-03-11T17:53:53.684Z,1.02
2023-03-11T17:56:24.055Z,0.96
2023-03-11T17:58:52.836Z,0.79
2023-03-11T18:01:23.213Z,0.67
2023-03-11T18:03:52.082Z,0.54
2023-03-11T18:06:21.636Z,0.46
2023-03-11T18:08:50.393Z,0.46
2023-03-11T18:11:21.854Z,0.32
2023-03-11T18:13:55.329Z,0.19
2023-03-11T18:16:25.764Z,0.16
2023-03-11T18:18:59.517Z,0.10
2023-03-11T18:21:30.620Z,0.02
2023-03-11T18:24:01.370Z,-0.09
2023-03-11T18:26:31.085Z,-0.17
2023-03-11T18:29:01.008Z,-0.23
2023-03-11T18:31:32.728Z,-0.20
2023-03-11T18:34:07.387Z,-0.27
2023-03-11T18:36:38.369Z,-0.33
2023-03-11T18:39:07.476Z,-0.38
2023-03-11T18:41:36.520Z,-0.40
2023-03-11T18:44:07.664Z,-0.45
2023-03-11T18:46:36.133Z,-0.49
2023-03-11T18:49:06.210Z,-0.46
2023-03-11T18:51:34.807Z,-0.38
2023-03-11T18:54:03.895Z,-0.26
2023-03-11T18:56:33.127Z,-0.30
2023-03-11T18:59:01.598Z,-0.32
2023-03-11T19:01:33.000Z,-0.36
2023-03-11T19:04:01.751Z,-0.36
2023-03-11T19:06:30.714Z,-0.34
2023-03-11T19:08:59.373Z,-0.32
2023-03-11T19:11:28.126Z,-0.35
2023-03-11T19:14:00.384Z,-0.36
2023-03-11T19:16:32.701Z,-0.40
2023-03-11T19:19:02.824Z,-0.53
2023-03-11T19:21:31.832Z,-0.55
2023-03-11T19:24:00.210Z,-0.63
2023-03-11T19:26:43.722Z,-0.66
2023-03-11T19:29:13.965Z,-0.75
2023-03-11T19:31:45.699Z,-0.76
2023-03-11T19:34:14.511Z,-0.77
2023-03-11T19:36:42.879Z,-0.75
2023-03-11T19:39:14.621Z,-0.77
2023-03-11T19:41:43.332Z,-0.82
2023-03-11T19:44:12.099Z,-0.91
2023-03-11T19:46:41.124Z,-0.98
2023-03-11T19:49:12.118Z,-0.91
2023-03-11T19:51:49.582Z,-0.96
2023-03-11T19:54:19.715Z,-1.01
2023-03-11T19:56:48.456Z,-1.04
2023-03-11T19:59:17.116Z,-1.16
2023-03-11T20:01:45.504Z,-1.12
2023-03-11T20:04:15.422Z,-1.02
2023-03-11T20:06:44.769Z,-1.04
2023-03-11T20:09:13.615Z,-1.03
2023-03-11T20:11:44.169Z,-1.03
2023-03-11T20:14:14.487Z,-1.06
2023-03-11T20:16:43.373Z,-1.02
2023-03-11T20:19:12.124Z,-1.04
2023-03-11T20:21:44.601Z,-0.95
2023-03-11T20:24:14.248Z,-0.98
2023-03-11T20:26:42.530Z,-1.00
2023-03-11T20:29:11.127Z,-0.99
2023-03-11T20:31:41.009Z,-0.96
2023-03-11T20:34:10.400Z,-0.96
2023-03-11T20:36:39.258Z,-0.96
2023-03-11T20:39:10.579Z,-0.96
2023-03-11T20:41:41.552Z,-0.94
2023-03-11T20:44:13.121Z,-1.01
2023-03-11T20:46:41.789Z,-1.04
2023-03-11T20:49:10.393Z,-1.13
2023-03-11T20:51:41.528Z,-1.19
2023-03-11T20:54:12.004Z,-1.22
2023-03-11T20:56:42.379Z,-1.25
2023-03-11T20:59:13.848Z,-1.24
2023-03-11T21:01:45.906Z,-1.31
2023-03-11T21:04:16.587Z,-1.39
2023-03-11T21:06:45.501Z,-1.38
2023-03-11T21:09:15.824Z,-1.36
2023-03-11T21:11:47.013Z,-1.43
2023-03-11T21:14:19.396Z,-1.50
2023-03-11T21:16:48.369Z,-1.47
2023-03-11T21:19:16.952Z,-1.49
2023-03-11T21:21:45.330Z,-1.54
2023-03-11T21:24:15.196Z,-1.58
2023-03-11T21:26:43.513Z,-1.63
2023-03-11T21:29:11.823Z,-1.50
2023-03-11T21:31:40.060Z,-1.50
2023-03-11T21:34:11.103Z,-1.42
2023-03-11T21:36:39.310Z,-1.48
2023-03-11T21:39:08.176Z,-1.62
2023-03-11T21:41:38.295Z,-1.73
2023-03-11T21:44:06.552Z,-1.80
2023-03-11T21:46:34.958Z,-1.87
2023-03-11T21:49:03.472Z,-1.96
2023-03-11T21:51:31.916Z,-2.03
2023-03-11T21:54:00.406Z,-2.12
2023-03-11T21:56:28.846Z,-2.20
2023-03-11T21:58:58.947Z,-2.21
2023-03-11T22:01:28.375Z,-2.26
2023-03-11T22:03:56.831Z,-2.28
2023-03-11T22:06:26.569Z,-2.28
2023-03-11T22:08:54.605Z,-2.31
2023-03-11T22:11:23.580Z,-2.37
2023-03-11T22:13:54.003Z,-2.38
2023-03-11T22:16:25.449Z,-2.40
2023-03-11T22:18:55.007Z,-2.37
2023-03-11T22:21:23.586Z,-2.37
2023-03-11T22:23:51.962Z,-2.35
2023-03-11T22:26:20.455Z,-2.38
2023-03-11T22:28:49.171Z,-2.39
2023-03-11T22:31:19.311Z,-2.42
2023-03-11T22:33:49.843Z,-2.45
2023-03-11T22:36:18.227Z,-2.45
2023-03-11T22:38:46.928Z,-2.45
2023-03-11T22:41:17.735Z,-2.46
2023-03-11T22:43:46.918Z,-2.48
2023-03-11T22:46:15.868Z,-2.51
2023-03-11T22:48:44.222Z,-2.54
2023-03-11T22:51:14.809Z,-2.58
2023-03-11T22:53:43.089Z,-2.55
2023-03-11T22:56:13.606Z,-2.52
2023-03-11T22:58:43.879Z,-2.56
2023-03-11T23:01:12.537Z,-2.57
2023-03-11T23:03:41.338Z,-2.57
2023-03-11T23:06:15.058Z,-2.60
2023-03-11T23:08:44.038Z,-2.57
2023-03-11T23:11:15.769Z,-2.58
2023-03-11T23:13:46.513Z,-2.61
2023-03-11T23:16:17.282Z,-2.63
2023-03-11T23:18:47.614Z,-2.58
2023-03-11T23:21:20.236Z,-2.60
2023-03-11T23:23:48.867Z,-2.62
2023-03-11T23:26:17.966Z,-2.66
2023-03-11T23:28:47.860Z,-2.63
2023-03-11T23:31:16.999Z,-2.63
2023-03-11T23:33:46.123Z,-2.65
2023-03-11T23:36:18.801Z,-2.70
2023-03-11T23:38:48.065Z,-2.75
2023-03-11T23:41:18.970Z,-2.75
2023-03-11T23:43:48.531Z,-2.76
2023-03-11T23:46:16.953Z,-2.78
2023-03-11T23:48:45.356Z,-2.73
2023-03-11T23:51:14.077Z,-2.62
2023-03-11T23:53:43.546Z,-2.55
2023-03-11T23:56:13.587Z,-2.57
2023-03-11T23:58:42.026Z,-2.63
